sensor_id;sensor_type;location;lat;lon;timestamp;P1;durP1;ratioP1;P2;durP2;ratioP2
1509;SDS011;746;48.688;9.428;2023-05-23T00:01:14;19.00;;;15.70;;
1509;SDS011;746;48.688;9.428;2023-05-23T00:03:36;17.90;;;16.07;;
1509;SDS011;746;48.688;9.428;2023-05-23T00:05:57;17.47;;;15.90;;
1509;SDS011;746;48.688;9.428;2023-05-23T00:08:18;16.53;;;15.03;;
1509;SDS011;746;48.688;9.428;2023-05-23T00:10:40;17.33;;;15.73;;
1509;SDS011;746;48.688;9.428;2023-05-23T00:13:02;16.67;;;15.07;;
1509;SDS011;746;48.688;9.428;2023-05-23T00:15:24;16.77;;;15.13;;
1509;SDS011;746;48.688;9.428;2023-05-23T00:17:45;17.20;;;15.47;;
1509;SDS011;746;48.688;9.428;2023-05-23T00:20:07;15.83;;;14.43;;
1509;SDS011;746;48.688;9.428;2023-05-23T00:22:31;17.47;;;15.77;;
1509;SDS011;746;48.688;9.428;2023-05-23T00:24:52;15.83;;;14.33;;
1509;SDS011;746;48.688;9.428;2023-05-23T00:27:14;16.30;;;14.80;;
1509;SDS011;746;48.688;9.428;2023-05-23T00:29:36;16.30;;;14.60;;
1509;SDS011;746;48.688;9.428;2023-05-23T00:31:58;17.47;;;15.73;;
1509;SDS011;746;48.688;9.428;2023-05-23T00:34:19;17.70;;;15.90;;
1509;SDS011;746;48.688;9.428;2023-05-23T00:36:40;17.83;;;16.10;;
1509;SDS011;746;48.688;9.428;2023-05-23T00:39:02;18.33;;;16.53;;
1509;SDS011;746;48.688;9.428;2023-05-23T00:41:24;18.07;;;15.93;;
1509;SDS011;746;48.688;9.428;2023-05-23T00:43:45;17.83;;;16.13;;
1509;SDS011;746;48.688;9.428;2023-05-23T00:46:08;17.37;;;15.77;;
1509;SDS011;746;48.688;9.428;2023-05-23T00:48:30;18.40;;;16.50;;
1509;SDS011;746;48.688;9.428;2023-05-23T00:50:51;18.37;;;16.57;;
1509;SDS011;746;48.688;9.428;2023-05-23T00:53:13;17.73;;;15.97;;
1509;SDS011;746;48.688;9.428;2023-05-23T00:55:34;18.03;;;16.33;;
1509;SDS011;746;48.688;9.428;2023-05-23T00:57:56;17.67;;;15.97;;
1509;SDS011;746;48.688;9.428;2023-05-23T01:00:17;18.67;;;16.87;;
1509;SDS011;746;48.688;9.428;2023-05-23T01:02:42;17.83;;;16.03;;
1509;SDS011;746;48.688;9.428;2023-05-23T01:05:04;18.00;;;16.23;;
1509;SDS011;746;48.688;9.428;2023-05-23T01:07:26;19.20;;;16.97;;
1509;SDS011;746;48.688;9.428;2023-05-23T01:09:47;17.63;;;15.83;;
1509;SDS011;746;48.688;9.428;2023-05-23T01:12:13;18.27;;;16.47;;
1509;SDS011;746;48.688;9.428;2023-05-23T01:14:39;17.87;;;16.17;;
1509;SDS011;746;48.688;9.428;2023-05-23T01:17:03;17.97;;;16.27;;
1509;SDS011;746;48.688;9.428;2023-05-23T01:19:41;19.07;;;17.13;;
1509;SDS011;746;48.688;9.428;2023-05-23T01:22:11;19.10;;;17.03;;
1509;SDS011;746;48.688;9.428;2023-05-23T01:24:35;18.47;;;16.57;;
1509;SDS011;746;48.688;9.428;2023-05-23T01:27:00;19.30;;;17.40;;
1509;SDS011;746;48.688;9.428;2023-05-23T01:29:25;19.57;;;17.53;;
1509;SDS011;746;48.688;9.428;2023-05-23T01:31:47;20.63;;;17.97;;
1509;SDS011;746;48.688;9.428;2023-05-23T01:34:10;20.50;;;18.40;;
1509;SDS011;746;48.688;9.428;2023-05-23T01:36:32;20.67;;;18.47;;
1509;SDS011;746;48.688;9.428;2023-05-23T01:38:54;20.43;;;18.50;;
1509;SDS011;746;48.688;9.428;2023-05-23T01:41:15;21.27;;;19.10;;
1509;SDS011;746;48.688;9.428;2023-05-23T01:43:36;19.73;;;17.63;;
1509;SDS011;746;48.688;9.428;2023-05-23T01:45:59;20.60;;;17.60;;
1509;SDS011;746;48.688;9.428;2023-05-23T01:48:20;19.47;;;17.47;;
1509;SDS011;746;48.688;9.428;2023-05-23T01:50:42;20.90;;;18.67;;
1509;SDS011;746;48.688;9.428;2023-05-23T01:53:05;20.37;;;18.27;;
1509;SDS011;746;48.688;9.428;2023-05-23T01:55:26;21.23;;;18.97;;
1509;SDS011;746;48.688;9.428;2023-05-23T01:57:48;20.70;;;18.53;;
1509;SDS011;746;48.688;9.428;2023-05-23T02:00:10;21.50;;;19.23;;
1509;SDS011;746;48.688;9.428;2023-05-23T02:02:34;21.90;;;19.70;;
1509;SDS011;746;48.688;9.428;2023-05-23T02:04:56;20.80;;;18.63;;
1509;SDS011;746;48.688;9.428;2023-05-23T02:07:17;20.63;;;18.63;;
1509;SDS011;746;48.688;9.428;2023-05-23T02:09:42;20.30;;;18.17;;
1509;SDS011;746;48.688;9.428;2023-05-23T02:12:03;22.50;;;20.07;;
1509;SDS011;746;48.688;9.428;2023-05-23T02:14:24;22.03;;;19.73;;
1509;SDS011;746;48.688;9.428;2023-05-23T02:16:47;22.70;;;20.07;;
1509;SDS011;746;48.688;9.428;2023-05-23T02:19:13;21.87;;;19.47;;
1509;SDS011;746;48.688;9.428;2023-05-23T02:21:34;21.67;;;19.47;;
1509;SDS011;746;48.688;9.428;2023-05-23T02:23:55;22.00;;;19.60;;
1509;SDS011;746;48.688;9.428;2023-05-23T02:26:16;20.80;;;18.63;;
1509;SDS011;746;48.688;9.428;2023-05-23T02:28:38;21.80;;;19.50;;
1509;SDS011;746;48.688;9.428;2023-05-23T02:31:00;23.23;;;20.73;;
1509;SDS011;746;48.688;9.428;2023-05-23T02:33:22;22.10;;;19.77;;
1509;SDS011;746;48.688;9.428;2023-05-23T02:35:45;22.20;;;19.90;;
1509;SDS011;746;48.688;9.428;2023-05-23T02:38:06;22.00;;;19.80;;
1509;SDS011;746;48.688;9.428;2023-05-23T02:40:28;21.43;;;19.23;;
1509;SDS011;746;48.688;9.428;2023-05-23T02:42:49;21.77;;;19.57;;
1509;SDS011;746;48.688;9.428;2023-05-23T02:45:11;23.03;;;20.20;;
1509;SDS011;746;48.688;9.428;2023-05-23T02:47:32;22.53;;;19.70;;
1509;SDS011;746;48.688;9.428;2023-05-23T02:49:53;20.53;;;18.43;;
1509;SDS011;746;48.688;9.428;2023-05-23T02:52:16;20.93;;;18.73;;
1509;SDS011;746;48.688;9.428;2023-05-23T02:54:37;21.67;;;19.47;;
1509;SDS011;746;48.688;9.428;2023-05-23T02:56:59;22.47;;;20.07;;
1509;SDS011;746;48.688;9.428;2023-05-23T02:59:21;23.83;;;19.93;;
1509;SDS011;746;48.688;9.428;2023-05-23T03:01:42;21.73;;;19.47;;
1509;SDS011;746;48.688;9.428;2023-05-23T03:04:03;21.87;;;19.47;;
1509;SDS011;746;48.688;9.428;2023-05-23T03:06:24;21.50;;;19.17;;
1509;SDS011;746;48.688;9.428;2023-05-23T03:08:47;21.20;;;19.00;;
1509;SDS011;746;48.688;9.428;2023-05-23T03:11:09;22.77;;;19.50;;
1509;SDS011;746;48.688;9.428;2023-05-23T03:13:30;22.87;;;20.30;;
1509;SDS011;746;48.688;9.428;2023-05-23T03:15:51;21.57;;;19.17;;
1509;SDS011;746;48.688;9.428;2023-05-23T03:18:13;23.13;;;20.17;;
1509;SDS011;746;48.688;9.428;2023-05-23T03:20:35;22.53;;;20.20;;
1509;SDS011;746;48.688;9.428;2023-05-23T03:22:56;22.17;;;19.43;;
1509;SDS011;746;48.688;9.428;2023-05-23T03:25:19;22.53;;;20.20;;
1509;SDS011;746;48.688;9.428;2023-05-23T03:27:40;21.90;;;19.70;;
1509;SDS011;746;48.688;9.428;2023-05-23T03:30:02;21.90;;;19.70;;
1509;SDS011;746;48.688;9.428;2023-05-23T03:32:23;21.37;;;19.07;;
1509;SDS011;746;48.688;9.428;2023-05-23T03:34:44;23.67;;;19.27;;
1509;SDS011;746;48.688;9.428;2023-05-23T03:37:05;21.80;;;19.50;;
1509;SDS011;746;48.688;9.428;2023-05-23T03:39:27;21.83;;;19.53;;
1509;SDS011;746;48.688;9.428;2023-05-23T03:41:49;21.77;;;19.57;;
1509;SDS011;746;48.688;9.428;2023-05-23T03:44:10;22.60;;;19.67;;
1509;SDS011;746;48.688;9.428;2023-05-23T03:46:32;21.07;;;18.90;;
1509;SDS011;746;48.688;9.428;2023-05-23T03:48:53;21.03;;;18.97;;
1509;SDS011;746;48.688;9.428;2023-05-23T03:51:14;23.10;;;20.63;;
1509;SDS011;746;48.688;9.428;2023-05-23T03:53:35;21.27;;;19.07;;
1509;SDS011;746;48.688;9.428;2023-05-23T03:55:57;21.07;;;19.07;;
1509;SDS011;746;48.688;9.428;2023-05-23T03:58:19;20.80;;;18.60;;
1509;SDS011;746;48.688;9.428;2023-05-23T04:00:41;20.17;;;18.07;;
1509;SDS011;746;48.688;9.428;2023-05-23T04:03:02;24.17;;;21.33;;
1509;SDS011;746;48.688;9.428;2023-05-23T04:05:23;27.37;;;22.10;;
1509;SDS011;746;48.688;9.428;2023-05-23T04:07:44;24.10;;;21.53;;
1509;SDS011;746;48.688;9.428;2023-05-23T04:10:06;25.53;;;22.10;;
1509;SDS011;746;48.688;9.428;2023-05-23T04:12:28;26.13;;;21.93;;
1509;SDS011;746;48.688;9.428;2023-05-23T04:14:51;24.80;;;22.20;;
1509;SDS011;746;48.688;9.428;2023-05-23T04:17:12;26.37;;;23.60;;
1509;SDS011;746;48.688;9.428;2023-05-23T04:19:34;25.47;;;22.40;;
1509;SDS011;746;48.688;9.428;2023-05-23T04:21:55;28.30;;;24.13;;
1509;SDS011;746;48.688;9.428;2023-05-23T04:24:16;27.53;;;23.40;;
1509;SDS011;746;48.688;9.428;2023-05-23T04:26:37;29.10;;;25.77;;
1509;SDS011;746;48.688;9.428;2023-05-23T04:28:59;35.50;;;27.10;;
1509;SDS011;746;48.688;9.428;2023-05-23T04:31:22;34.63;;;28.60;;
1509;SDS011;746;48.688;9.428;2023-05-23T04:33:43;34.90;;;27.57;;
1509;SDS011;746;48.688;9.428;2023-05-23T04:36:05;39.67;;;27.73;;
1509;SDS011;746;48.688;9.428;2023-05-23T04:38:28;38.20;;;31.67;;
1509;SDS011;746;48.688;9.428;2023-05-23T04:40:49;33.43;;;28.43;;
1509;SDS011;746;48.688;9.428;2023-05-23T04:43:11;36.57;;;28.90;;
1509;SDS011;746;48.688;9.428;2023-05-23T04:45:33;42.90;;;33.37;;
1509;SDS011;746;48.688;9.428;2023-05-23T04:47:56;41.67;;;32.70;;
1509;SDS011;746;48.688;9.428;2023-05-23T04:50:18;43.33;;;35.60;;
1509;SDS011;746;48.688;9.428;2023-05-23T04:52:40;44.80;;;35.70;;
1509;SDS011;746;48.688;9.428;2023-05-23T04:55:02;43.97;;;35.90;;
1509;SDS011;746;48.688;9.428;2023-05-23T04:57:23;44.63;;;34.57;;
1509;SDS011;746;48.688;9.428;2023-05-23T04:59:45;46.83;;;37.70;;
1509;SDS011;746;48.688;9.428;2023-05-23T05:02:06;46.97;;;35.63;;
1509;SDS011;746;48.688;9.428;2023-05-23T05:04:29;49.03;;;37.87;;
1509;SDS011;746;48.688;9.428;2023-05-23T05:06:50;52.23;;;39.07;;
1509;SDS011;746;48.688;9.428;2023-05-23T05:09:12;50.80;;;39.23;;
1509;SDS011;746;48.688;9.428;2023-05-23T05:11:33;53.63;;;40.17;;
1509;SDS011;746;48.688;9.428;2023-05-23T05:13:55;48.63;;;38.70;;
1509;SDS011;746;48.688;9.428;2023-05-23T05:16:16;50.13;;;37.60;;
1509;SDS011;746;48.688;9.428;2023-05-23T05:18:37;51.67;;;38.33;;
1509;SDS011;746;48.688;9.428;2023-05-23T05:21:00;51.03;;;38.67;;
1509;SDS011;746;48.688;9.428;2023-05-23T05:23:24;50.83;;;40.70;;
1509;SDS011;746;48.688;9.428;2023-05-23T05:25:47;52.50;;;37.83;;
1509;SDS011;746;48.688;9.428;2023-05-23T05:28:09;56.77;;;41.20;;
1509;SDS011;746;48.688;9.428;2023-05-23T05:30:30;52.30;;;40.10;;
1509;SDS011;746;48.688;9.428;2023-05-23T05:32:52;54.37;;;43.07;;
1509;SDS011;746;48.688;9.428;2023-05-23T05:35:17;52.83;;;42.00;;
1509;SDS011;746;48.688;9.428;2023-05-23T05:37:39;56.23;;;43.30;;
1509;SDS011;746;48.688;9.428;2023-05-23T05:40:01;59.43;;;44.90;;
1509;SDS011;746;48.688;9.428;2023-05-23T05:42:26;52.20;;;42.30;;
1509;SDS011;746;48.688;9.428;2023-05-23T05:44:47;57.47;;;43.17;;
1509;SDS011;746;48.688;9.428;2023-05-23T05:47:08;56.50;;;45.33;;
1509;SDS011;746;48.688;9.428;2023-05-23T05:49:29;54.07;;;44.20;;
1509;SDS011;746;48.688;9.428;2023-05-23T05:51:51;56.67;;;44.27;;
1509;SDS011;746;48.688;9.428;2023-05-23T05:54:14;57.30;;;45.93;;
1509;SDS011;746;48.688;9.428;2023-05-23T05:56:38;56.13;;;44.73;;
1509;SDS011;746;48.688;9.428;2023-05-23T05:58:59;56.00;;;46.20;;
1509;SDS011;746;48.688;9.428;2023-05-23T06:01:20;54.17;;;43.97;;
1509;SDS011;746;48.688;9.428;2023-05-23T06:03:42;58.13;;;44.50;;
1509;SDS011;746;48.688;9.428;2023-05-23T06:06:03;52.83;;;44.40;;
1509;SDS011;746;48.688;9.428;2023-05-23T06:08:25;55.93;;;43.93;;
1509;SDS011;746;48.688;9.428;2023-05-23T06:10:48;52.43;;;42.60;;
1509;SDS011;746;48.688;9.428;2023-05-23T06:13:09;53.87;;;43.83;;
1509;SDS011;746;48.688;9.428;2023-05-23T06:15:30;49.97;;;42.10;;
1509;SDS011;746;48.688;9.428;2023-05-23T06:17:51;54.33;;;44.57;;
1509;SDS011;746;48.688;9.428;2023-05-23T06:20:12;48.87;;;41.63;;
1509;SDS011;746;48.688;9.428;2023-05-23T06:22:34;49.97;;;42.93;;
1509;SDS011;746;48.688;9.428;2023-05-23T06:24:55;52.47;;;41.80;;
1509;SDS011;746;48.688;9.428;2023-05-23T06:27:18;49.90;;;40.07;;
1509;SDS011;746;48.688;9.428;2023-05-23T06:29:39;48.47;;;41.27;;
1509;SDS011;746;48.688;9.428;2023-05-23T06:32:00;50.10;;;42.83;;
1509;SDS011;746;48.688;9.428;2023-05-23T06:34:21;50.17;;;42.87;;
1509;SDS011;746;48.688;9.428;2023-05-23T06:36:42;45.23;;;39.37;;
1509;SDS011;746;48.688;9.428;2023-05-23T06:39:05;47.80;;;40.30;;
1509;SDS011;746;48.688;9.428;2023-05-23T06:41:29;47.57;;;39.57;;
1509;SDS011;746;48.688;9.428;2023-05-23T06:43:51;49.93;;;41.97;;
1509;SDS011;746;48.688;9.428;2023-05-23T06:46:12;49.33;;;39.90;;
1509;SDS011;746;48.688;9.428;2023-05-23T06:48:34;50.83;;;40.67;;
1509;SDS011;746;48.688;9.428;2023-05-23T06:50:55;52.47;;;39.73;;
1509;SDS011;746;48.688;9.428;2023-05-23T06:53:16;49.93;;;41.37;;
1509;SDS011;746;48.688;9.428;2023-05-23T06:55:38;49.30;;;41.90;;
1509;SDS011;746;48.688;9.428;2023-05-23T06:57:59;51.23;;;42.43;;
1509;SDS011;746;48.688;9.428;2023-05-23T07:00:24;51.70;;;43.20;;
1509;SDS011;746;48.688;9.428;2023-05-23T07:02:45;47.57;;;40.90;;
1509;SDS011;746;48.688;9.428;2023-05-23T07:05:08;55.17;;;40.43;;
1509;SDS011;746;48.688;9.428;2023-05-23T07:07:30;56.13;;;41.47;;
1509;SDS011;746;48.688;9.428;2023-05-23T07:09:51;46.20;;;38.90;;
1509;SDS011;746;48.688;9.428;2023-05-23T07:12:13;48.70;;;39.53;;
1509;SDS011;746;48.688;9.428;2023-05-23T07:14:34;45.63;;;40.60;;
1509;SDS011;746;48.688;9.428;2023-05-23T07:16:58;47.37;;;41.97;;
1509;SDS011;746;48.688;9.428;2023-05-23T07:19:19;47.70;;;42.07;;
1509;SDS011;746;48.688;9.428;2023-05-23T07:21:40;46.57;;;41.60;;
1509;SDS011;746;48.688;9.428;2023-05-23T07:24:02;48.10;;;39.77;;
1509;SDS011;746;48.688;9.428;2023-05-23T07:26:23;46.03;;;40.97;;
1509;SDS011;746;48.688;9.428;2023-05-23T07:28:46;46.80;;;41.70;;
1509;SDS011;746;48.688;9.428;2023-05-23T07:31:07;48.20;;;40.23;;
1509;SDS011;746;48.688;9.428;2023-05-23T07:33:30;46.80;;;39.43;;
1509;SDS011;746;48.688;9.428;2023-05-23T07:35:53;46.53;;;38.80;;
1509;SDS011;746;48.688;9.428;2023-05-23T07:38:14;46.63;;;39.37;;
1509;SDS011;746;48.688;9.428;2023-05-23T07:40:36;48.57;;;40.10;;
1509;SDS011;746;48.688;9.428;2023-05-23T07:42:59;54.13;;;42.27;;
1509;SDS011;746;48.688;9.428;2023-05-23T07:45:20;47.13;;;41.27;;
1509;SDS011;746;48.688;9.428;2023-05-23T07:47:41;45.73;;;40.43;;
1509;SDS011;746;48.688;9.428;2023-05-23T07:50:04;50.60;;;43.23;;
1509;SDS011;746;48.688;9.428;2023-05-23T07:52:26;47.77;;;42.60;;
1509;SDS011;746;48.688;9.428;2023-05-23T07:54:48;50.27;;;44.60;;
1509;SDS011;746;48.688;9.428;2023-05-23T07:57:09;48.57;;;42.90;;
1509;SDS011;746;48.688;9.428;2023-05-23T07:59:30;49.67;;;44.33;;
1509;SDS011;746;48.688;9.428;2023-05-23T08:01:52;49.97;;;42.23;;
1509;SDS011;746;48.688;9.428;2023-05-23T08:04:13;48.10;;;42.60;;
1509;SDS011;746;48.688;9.428;2023-05-23T08:06:36;49.43;;;43.27;;
1509;SDS011;746;48.688;9.428;2023-05-23T08:09:10;47.47;;;42.17;;
1509;SDS011;746;48.688;9.428;2023-05-23T08:11:32;44.80;;;39.93;;
1509;SDS011;746;48.688;9.428;2023-05-23T08:13:53;45.17;;;39.97;;
1509;SDS011;746;48.688;9.428;2023-05-23T08:16:15;41.47;;;36.97;;
1509;SDS011;746;48.688;9.428;2023-05-23T08:18:36;42.07;;;37.17;;
1509;SDS011;746;48.688;9.428;2023-05-23T08:20:57;40.57;;;36.27;;
1509;SDS011;746;48.688;9.428;2023-05-23T08:23:20;39.10;;;34.90;;
1509;SDS011;746;48.688;9.428;2023-05-23T08:25:41;38.63;;;34.43;;
1509;SDS011;746;48.688;9.428;2023-05-23T08:28:02;35.93;;;32.03;;
1509;SDS011;746;48.688;9.428;2023-05-23T08:30:24;33.97;;;30.17;;
1509;SDS011;746;48.688;9.428;2023-05-23T08:32:45;33.67;;;30.17;;
1509;SDS011;746;48.688;9.428;2023-05-23T08:35:06;32.23;;;28.93;;
1509;SDS011;746;48.688;9.428;2023-05-23T08:37:28;32.73;;;29.53;;
1509;SDS011;746;48.688;9.428;2023-05-23T08:39:50;33.63;;;30.13;;
1509;SDS011;746;48.688;9.428;2023-05-23T08:42:12;33.03;;;28.73;;
1509;SDS011;746;48.688;9.428;2023-05-23T08:44:33;32.20;;;28.80;;
1509;SDS011;746;48.688;9.428;2023-05-23T08:46:55;32.37;;;29.17;;
1509;SDS011;746;48.688;9.428;2023-05-23T08:49:21;33.37;;;30.07;;
1509;SDS011;746;48.688;9.428;2023-05-23T08:51:43;31.60;;;28.40;;
1509;SDS011;746;48.688;9.428;2023-05-23T08:54:04;34.63;;;31.00;;
1509;SDS011;746;48.688;9.428;2023-05-23T08:56:29;32.33;;;29.07;;
1509;SDS011;746;48.688;9.428;2023-05-23T08:58:50;32.87;;;29.47;;
1509;SDS011;746;48.688;9.428;2023-05-23T09:01:13;32.00;;;28.70;;
1509;SDS011;746;48.688;9.428;2023-05-23T09:03:37;32.97;;;29.57;;
1509;SDS011;746;48.688;9.428;2023-05-23T09:05:59;30.67;;;27.37;;
1509;SDS011;746;48.688;9.428;2023-05-23T09:08:20;30.50;;;27.07;;
1509;SDS011;746;48.688;9.428;2023-05-23T09:10:43;31.03;;;28.03;;
1509;SDS011;746;48.688;9.428;2023-05-23T09:13:05;32.93;;;29.47;;
1509;SDS011;746;48.688;9.428;2023-05-23T09:15:28;29.60;;;26.63;;
1509;SDS011;746;48.688;9.428;2023-05-23T09:17:50;31.57;;;28.10;;
1509;SDS011;746;48.688;9.428;2023-05-23T09:20:13;29.73;;;26.50;;
1509;SDS011;746;48.688;9.428;2023-05-23T09:22:34;30.30;;;27.30;;
1509;SDS011;746;48.688;9.428;2023-05-23T09:24:55;28.57;;;25.67;;
1509;SDS011;746;48.688;9.428;2023-05-23T09:27:17;30.63;;;25.33;;
1509;SDS011;746;48.688;9.428;2023-05-23T09:29:39;29.53;;;26.60;;
1509;SDS011;746;48.688;9.428;2023-05-23T09:32:05;29.33;;;26.33;;
1509;SDS011;746;48.688;9.428;2023-05-23T09:34:30;28.13;;;25.13;;
1509;SDS011;746;48.688;9.428;2023-05-23T09:36:53;26.97;;;24.30;;
1509;SDS011;746;48.688;9.428;2023-05-23T09:39:15;26.37;;;23.60;;
1509;SDS011;746;48.688;9.428;2023-05-23T09:41:36;27.40;;;24.47;;
1509;SDS011;746;48.688;9.428;2023-05-23T09:43:57;28.10;;;22.93;;
1509;SDS011;746;48.688;9.428;2023-05-23T09:46:21;26.17;;;23.47;;
1509;SDS011;746;48.688;9.428;2023-05-23T09:48:45;25.33;;;22.83;;
1509;SDS011;746;48.688;9.428;2023-05-23T09:51:07;26.03;;;23.33;;
1509;SDS011;746;48.688;9.428;2023-05-23T09:53:28;24.90;;;22.50;;
1509;SDS011;746;48.688;9.428;2023-05-23T09:55:50;25.33;;;22.80;;
1509;SDS011;746;48.688;9.428;2023-05-23T09:58:11;25.27;;;22.73;;
1509;SDS011;746;48.688;9.428;2023-05-23T10:00:32;24.67;;;22.17;;
1509;SDS011;746;48.688;9.428;2023-05-23T10:02:57;23.83;;;21.47;;
1509;SDS011;746;48.688;9.428;2023-05-23T10:05:26;25.13;;;22.73;;
1509;SDS011;746;48.688;9.428;2023-05-23T10:07:49;24.27;;;21.90;;
1509;SDS011;746;48.688;9.428;2023-05-23T10:10:11;21.83;;;19.67;;
1509;SDS011;746;48.688;9.428;2023-05-23T10:12:38;23.83;;;21.63;;
1509;SDS011;746;48.688;9.428;2023-05-23T10:15:02;23.97;;;21.60;;
1509;SDS011;746;48.688;9.428;2023-05-23T10:17:25;24.53;;;22.13;;
1509;SDS011;746;48.688;9.428;2023-05-23T10:19:51;22.80;;;20.67;;
1509;SDS011;746;48.688;9.428;2023-05-23T10:22:13;23.07;;;20.73;;
1509;SDS011;746;48.688;9.428;2023-05-23T10:24:36;23.07;;;20.67;;
1509;SDS011;746;48.688;9.428;2023-05-23T10:26:57;22.83;;;20.63;;
1509;SDS011;746;48.688;9.428;2023-05-23T10:29:19;23.37;;;21.23;;
1509;SDS011;746;48.688;9.428;2023-05-23T10:31:40;23.33;;;21.03;;
1509;SDS011;746;48.688;9.428;2023-05-23T10:34:03;22.87;;;20.47;;
1509;SDS011;746;48.688;9.428;2023-05-23T10:36:31;22.57;;;20.40;;
1509;SDS011;746;48.688;9.428;2023-05-23T10:38:54;24.53;;;21.90;;
1509;SDS011;746;48.688;9.428;2023-05-23T10:41:21;24.23;;;21.83;;
1509;SDS011;746;48.688;9.428;2023-05-23T10:43:44;21.43;;;19.33;;
1509;SDS011;746;48.688;9.428;2023-05-23T10:46:07;21.47;;;19.57;;
1509;SDS011;746;48.688;9.428;2023-05-23T10:48:32;21.80;;;19.47;;
1509;SDS011;746;48.688;9.428;2023-05-23T10:51:04;21.53;;;19.53;;
1509;SDS011;746;48.688;9.428;2023-05-23T10:53:27;20.17;;;18.30;;
1509;SDS011;746;48.688;9.428;2023-05-23T10:55:49;21.60;;;19.30;;
1509;SDS011;746;48.688;9.428;2023-05-23T10:58:11;22.33;;;20.23;;
1509;SDS011;746;48.688;9.428;2023-05-23T11:00:33;21.57;;;19.40;;
1509;SDS011;746;48.688;9.428;2023-05-23T11:02:57;22.13;;;19.90;;
1509;SDS011;746;48.688;9.428;2023-05-23T11:05:20;20.10;;;18.30;;
1509;SDS011;746;48.688;9.428;2023-05-23T11:07:42;20.33;;;18.40;;
1509;SDS011;746;48.688;9.428;2023-05-23T11:10:08;19.07;;;17.33;;
1509;SDS011;746;48.688;9.428;2023-05-23T11:12:40;19.60;;;17.60;;
1509;SDS011;746;48.688;9.428;2023-05-23T11:15:02;19.70;;;17.97;;
1509;SDS011;746;48.688;9.428;2023-05-23T11:17:31;19.30;;;17.57;;
1509;SDS011;746;48.688;9.428;2023-05-23T11:19:55;18.53;;;16.83;;
1509;SDS011;746;48.688;9.428;2023-05-23T11:22:18;18.03;;;16.30;;
1509;SDS011;746;48.688;9.428;2023-05-23T11:24:49;18.73;;;16.80;;
1509;SDS011;746;48.688;9.428;2023-05-23T11:27:14;17.27;;;15.67;;
1509;SDS011;746;48.688;9.428;2023-05-23T11:29:35;17.30;;;15.73;;
1509;SDS011;746;48.688;9.428;2023-05-23T11:31:56;17.10;;;15.57;;
1509;SDS011;746;48.688;9.428;2023-05-23T11:34:18;17.67;;;15.70;;
1509;SDS011;746;48.688;9.428;2023-05-23T11:36:40;15.87;;;14.47;;
1509;SDS011;746;48.688;9.428;2023-05-23T11:39:02;17.57;;;15.53;;
1509;SDS011;746;48.688;9.428;2023-05-23T11:41:24;17.17;;;15.53;;
1509;SDS011;746;48.688;9.428;2023-05-23T11:43:50;17.07;;;15.50;;
1509;SDS011;746;48.688;9.428;2023-05-23T11:46:12;15.90;;;14.43;;
1509;SDS011;746;48.688;9.428;2023-05-23T11:48:33;15.93;;;14.53;;
1509;SDS011;746;48.688;9.428;2023-05-23T11:50:55;16.00;;;14.53;;
1509;SDS011;746;48.688;9.428;2023-05-23T11:53:16;16.37;;;14.80;;
1509;SDS011;746;48.688;9.428;2023-05-23T11:55:46;14.80;;;13.50;;
1509;SDS011;746;48.688;9.428;2023-05-23T11:58:08;16.13;;;14.10;;
1509;SDS011;746;48.688;9.428;2023-05-23T12:00:30;15.77;;;14.37;;
1509;SDS011;746;48.688;9.428;2023-05-23T12:02:51;15.47;;;14.10;;
1509;SDS011;746;48.688;9.428;2023-05-23T12:05:13;14.67;;;13.37;;
1509;SDS011;746;48.688;9.428;2023-05-23T12:07:34;13.70;;;12.40;;
1509;SDS011;746;48.688;9.428;2023-05-23T12:09:56;13.57;;;12.43;;
1509;SDS011;746;48.688;9.428;2023-05-23T12:12:18;14.27;;;12.97;;
1509;SDS011;746;48.688;9.428;2023-05-23T12:14:41;13.70;;;12.30;;
1509;SDS011;746;48.688;9.428;2023-05-23T12:17:05;12.50;;;11.50;;
1509;SDS011;746;48.688;9.428;2023-05-23T12:19:26;12.03;;;11.03;;
1509;SDS011;746;48.688;9.428;2023-05-23T12:21:48;11.77;;;10.67;;
1509;SDS011;746;48.688;9.428;2023-05-23T12:24:16;10.90;;;9.90;;
1509;SDS011;746;48.688;9.428;2023-05-23T12:26:44;9.83;;;9.03;;
1509;SDS011;746;48.688;9.428;2023-05-23T12:29:05;9.40;;;8.67;;
1509;SDS011;746;48.688;9.428;2023-05-23T12:31:26;8.73;;;8.03;;
1509;SDS011;746;48.688;9.428;2023-05-23T12:33:51;9.67;;;8.83;;
1509;SDS011;746;48.688;9.428;2023-05-23T12:36:12;9.20;;;8.57;;
1509;SDS011;746;48.688;9.428;2023-05-23T12:38:33;10.77;;;9.87;;
1509;SDS011;746;48.688;9.428;2023-05-23T12:41:06;10.90;;;10.00;;
1509;SDS011;746;48.688;9.428;2023-05-23T12:43:27;11.30;;;10.30;;
1509;SDS011;746;48.688;9.428;2023-05-23T12:45:49;11.37;;;10.47;;
1509;SDS011;746;48.688;9.428;2023-05-23T12:48:10;11.57;;;10.47;;
1509;SDS011;746;48.688;9.428;2023-05-23T12:50:33;10.93;;;9.90;;
1509;SDS011;746;48.688;9.428;2023-05-23T12:52:54;11.13;;;10.23;;
1509;SDS011;746;48.688;9.428;2023-05-23T12:55:15;12.10;;;11.03;;
1509;SDS011;746;48.688;9.428;2023-05-23T12:57:37;11.80;;;10.60;;
1509;SDS011;746;48.688;9.428;2023-05-23T12:59:58;12.10;;;11.00;;
1509;SDS011;746;48.688;9.428;2023-05-23T13:02:20;10.20;;;9.33;;
1509;SDS011;746;48.688;9.428;2023-05-23T13:04:41;9.53;;;8.63;;
1509;SDS011;746;48.688;9.428;2023-05-23T13:07:04;10.07;;;9.30;;
1509;SDS011;746;48.688;9.428;2023-05-23T13:09:25;8.67;;;7.97;;
1509;SDS011;746;48.688;9.428;2023-05-23T13:11:46;8.90;;;8.10;;
1509;SDS011;746;48.688;9.428;2023-05-23T13:14:08;9.40;;;8.60;;
1509;SDS011;746;48.688;9.428;2023-05-23T13:16:29;9.97;;;9.27;;
1509;SDS011;746;48.688;9.428;2023-05-23T13:18:51;9.63;;;8.90;;
1509;SDS011;746;48.688;9.428;2023-05-23T13:21:13;9.13;;;8.43;;
1509;SDS011;746;48.688;9.428;2023-05-23T13:23:35;9.63;;;8.93;;
1509;SDS011;746;48.688;9.428;2023-05-23T13:25:58;9.43;;;8.63;;
1509;SDS011;746;48.688;9.428;2023-05-23T13:28:20;9.83;;;8.93;;
1509;SDS011;746;48.688;9.428;2023-05-23T13:30:41;9.20;;;8.60;;
1509;SDS011;746;48.688;9.428;2023-05-23T13:33:06;9.57;;;8.87;;
1509;SDS011;746;48.688;9.428;2023-05-23T13:35:27;9.30;;;8.50;;
1509;SDS011;746;48.688;9.428;2023-05-23T13:37:49;9.30;;;8.60;;
1509;SDS011;746;48.688;9.428;2023-05-23T13:40:15;9.10;;;8.50;;
1509;SDS011;746;48.688;9.428;2023-05-23T13:42:36;9.43;;;8.47;;
1509;SDS011;746;48.688;9.428;2023-05-23T13:44:58;9.33;;;8.37;;
1509;SDS011;746;48.688;9.428;2023-05-23T13:47:19;8.50;;;7.90;;
1509;SDS011;746;48.688;9.428;2023-05-23T13:49:40;8.47;;;7.80;;
1509;SDS011;746;48.688;9.428;2023-05-23T13:52:01;8.47;;;7.77;;
1509;SDS011;746;48.688;9.428;2023-05-23T13:54:23;8.33;;;7.63;;
1509;SDS011;746;48.688;9.428;2023-05-23T13:56:45;8.07;;;7.37;;
1509;SDS011;746;48.688;9.428;2023-05-23T13:59:07;7.83;;;7.33;;
1509;SDS011;746;48.688;9.428;2023-05-23T14:01:28;8.87;;;8.07;;
1509;SDS011;746;48.688;9.428;2023-05-23T14:03:49;8.27;;;7.60;;
1509;SDS011;746;48.688;9.428;2023-05-23T14:06:10;7.83;;;7.23;;
1509;SDS011;746;48.688;9.428;2023-05-23T14:08:32;8.07;;;7.30;;
1509;SDS011;746;48.688;9.428;2023-05-23T14:10:53;7.90;;;7.20;;
1509;SDS011;746;48.688;9.428;2023-05-23T14:13:16;7.73;;;7.03;;
1509;SDS011;746;48.688;9.428;2023-05-23T14:15:37;8.00;;;7.40;;
1509;SDS011;746;48.688;9.428;2023-05-23T14:18:01;8.10;;;7.37;;
1509;SDS011;746;48.688;9.428;2023-05-23T14:20:22;7.70;;;7.10;;
1509;SDS011;746;48.688;9.428;2023-05-23T14:22:44;7.23;;;6.63;;
1509;SDS011;746;48.688;9.428;2023-05-23T14:25:05;7.10;;;6.50;;
1509;SDS011;746;48.688;9.428;2023-05-23T14:27:26;7.73;;;6.90;;
1509;SDS011;746;48.688;9.428;2023-05-23T14:29:48;6.93;;;6.43;;
1509;SDS011;746;48.688;9.428;2023-05-23T14:32:10;7.50;;;6.80;;
1509;SDS011;746;48.688;9.428;2023-05-23T14:34:31;6.80;;;6.30;;